createdAt,value
2022-10-05T00:07:38.731Z,20.10
2022-10-05T00:17:41.866Z,20.83
2022-10-05T00:27:45.982Z,21.60
2022-10-05T00:37:53.012Z,22.52
2022-10-05T00:48:00.142Z,21.87
2022-10-05T00:58:27.607Z,22.70
2022-10-05T01:08:37.041Z,22.43
2022-10-05T01:18:50.210Z,24.03
2022-10-05T01:29:15.686Z,24.27
2022-10-05T01:39:30.416Z,23.53
2022-10-05T01:49:51.859Z,23.27
2022-10-05T02:00:16.063Z,24.47
2022-10-05T02:10:28.658Z,24.10
2022-10-05T02:20:33.779Z,25.23
2022-10-05T02:30:43.086Z,22.60
2022-10-05T02:41:12.649Z,23.30
2022-10-05T02:51:28.293Z,23.47
2022-10-05T03:01:41.334Z,21.93
2022-10-05T03:12:19.604Z,23.27
2022-10-05T03:22:26.238Z,22.97
2022-10-05T03:32:36.612Z,23.13
2022-10-05T03:42:58.304Z,24.40
2022-10-05T03:53:09.344Z,22.03
2022-10-05T04:03:47.450Z,22.80
2022-10-05T04:13:56.023Z,22.97
2022-10-05T04:24:11.225Z,22.07
2022-10-05T04:34:36.737Z,22.40
2022-10-05T04:44:51.091Z,20.93
2022-10-05T04:55:17.291Z,24.27
2022-10-05T05:05:48.419Z,20.83
2022-10-05T05:16:28.543Z,18.17
2022-10-05T05:26:52.095Z,19.07
2022-10-05T05:37:31.126Z,18.63
2022-10-05T05:47:40.767Z,19.83
2022-10-05T05:57:50.567Z,20.83
2022-10-05T06:07:53.828Z,19.53
2022-10-05T06:18:01.236Z,20.70
2022-10-05T06:28:08.310Z,20.00
2022-10-05T06:38:12.426Z,21.73
2022-10-05T06:48:22.950Z,20.67
2022-10-05T06:58:46.083Z,40.17
2022-10-05T07:09:10.923Z,16.47
2022-10-05T07:19:18.319Z,15.47
2022-10-05T07:29:23.470Z,14.07
2022-10-05T07:39:58.457Z,14.73
2022-10-05T07:50:11.678Z,15.13
2022-10-05T08:00:18.105Z,15.10
2022-10-05T08:10:50.331Z,15.00
2022-10-05T08:20:56.127Z,16.00
2022-10-05T08:31:14.745Z,16.00
2022-10-05T08:41:36.951Z,18.57
2022-10-05T08:52:20.780Z,19.53
2022-10-05T09:02:54.741Z,20.17
2022-10-05T09:13:08.286Z,23.15
2022-10-05T09:23:19.540Z,21.13
2022-10-05T09:33:23.889Z,21.00
2022-10-05T09:43:37.668Z,19.67
2022-10-05T09:54:01.975Z,21.60
2022-10-05T10:04:28.382Z,19.23
2022-10-05T10:15:09.311Z,22.13
2022-10-05T10:25:19.574Z,23.97
2022-10-05T10:35:35.611Z,16.97
2022-10-05T10:46:07.054Z,23.10
2022-10-05T10:56:20.494Z,21.63
2022-10-05T11:06:48.256Z,19.70
2022-10-05T11:16:55.617Z,20.40
2022-10-05T11:26:59.939Z,20.53
2022-10-05T11:37:19.577Z,18.40
2022-10-05T11:47:33.899Z,18.02
2022-10-05T11:57:41.376Z,14.20
2022-10-05T12:08:03.579Z,12.83
2022-10-05T12:18:13.329Z,11.30
2022-10-05T12:28:27.930Z,9.80
2022-10-05T12:38:45.990Z,10.18
2022-10-05T12:49:06.211Z,10.60
2022-10-05T12:59:44.516Z,9.07
2022-10-05T13:10:18.278Z,6.50
2022-10-05T13:20:32.813Z,8.20
2022-10-05T13:30:35.475Z,8.73
2022-10-05T13:40:58.609Z,8.53
2022-10-05T13:51:20.339Z,8.73
2022-10-05T14:01:40.552Z,9.10
2022-10-05T14:11:51.266Z,9.00
2022-10-05T14:21:54.786Z,10.25
2022-10-05T14:32:01.717Z,8.53
2022-10-05T14:42:15.186Z,8.73
2022-10-05T14:52:31.242Z,8.33
2022-10-05T15:02:56.721Z,7.33
2022-10-05T15:13:17.138Z,6.88
2022-10-05T15:23:52.082Z,7.67
2022-10-05T15:34:05.113Z,6.93
2022-10-05T15:44:33.341Z,6.30
2022-10-05T15:54:56.698Z,7.03
2022-10-05T16:05:26.155Z,5.70
2022-10-05T16:15:33.534Z,6.80
2022-10-05T16:25:54.303Z,6.70
2022-10-05T16:36:07.396Z,6.90
2022-10-05T16:46:27.705Z,6.53
2022-10-05T16:56:42.362Z,7.43
2022-10-05T17:06:43.795Z,8.77
2022-10-05T17:16:56.850Z,7.90
2022-10-05T17:27:15.339Z,9.53
2022-10-05T17:37:30.897Z,8.80
2022-10-05T17:47:58.453Z,9.18
2022-10-05T17:58:25.631Z,9.23
2022-10-05T18:08:36.854Z,10.97
2022-10-05T18:18:44.598Z,10.53
2022-10-05T18:29:04.768Z,10.37
2022-10-05T18:39:24.741Z,12.70
2022-10-05T18:49:53.245Z,11.67
2022-10-05T19:00:01.945Z,10.73
2022-10-05T19:10:08.081Z,10.43
2022-10-05T19:20:20.124Z,10.87
2022-10-05T19:30:26.890Z,12.10
2022-10-05T19:40:56.248Z,13.20
2022-10-05T19:50:59.508Z,12.17
2022-10-05T20:01:02.652Z,12.23
2022-10-05T20:11:09.409Z,11.27
2022-10-05T20:21:37.933Z,11.95
2022-10-05T20:31:39.402Z,11.97
2022-10-05T20:41:41.619Z,12.07
2022-10-05T20:51:43.065Z,12.83
2022-10-05T21:01:45.654Z,13.73
2022-10-05T21:11:48.919Z,13.18
2022-10-05T21:21:50.415Z,12.73
2022-10-05T21:31:52.255Z,12.07
2022-10-05T21:41:55.194Z,14.63
2022-10-05T21:51:57.916Z,13.87
2022-10-05T22:01:59.433Z,14.40
2022-10-05T22:12:00.927Z,14.37
2022-10-05T22:22:02.359Z,13.47
2022-10-05T22:32:03.885Z,13.63
2022-10-05T22:42:06.332Z,14.33
2022-10-05T22:52:07.797Z,13.93
2022-10-05T23:02:10.090Z,14.77
2022-10-05T23:12:11.630Z,14.43
2022-10-05T23:22:13.093Z,14.33
2022-10-05T23:32:14.556Z,14.23
2022-10-05T23:42:16.033Z,14.15
2022-10-05T23:52:17.460Z,14.70
